Time;durP1;ratioP1;P1;durP2;ratioP2;P2;SDS_P1;SDS_P2;PMS_P1;PMS_P2;Temp;Humidity;BMP_temperature;BMP_pressure;BME280_temperature;BME280_humidity;BME280_pressure;Samples;Min_cycle;Max_cycle;Signal;HPM_P1;HPM_P2
2023/05/11 06:30:25;;;;;;;;;;;;;;;;;;5581773;23;6778;-95
2023/05/11 06:35:45;;;;;;;;;;;;;;;;;;5510475;23;7540;-94
2023/05/11 06:38:14;;;;;;;;;;;;;;;;;;4989645;28;6840;-94
2023/05/11 06:41:00;;;;;;;;;;;;;;;;;;4990622;28;6913;-93
2023/05/11 07:09:07;;;;;;;;;;;;;;;;;;5007878;28;6698;-91
2023/05/11 07:27:44;;;;;;;;;;;;;;;;;;4853637;29;6777;-92
2023/05/11 07:36:58;;;;;;;;;;;;;;;;;;4798461;29;6698;-92
2023/05/11 07:39:51;;;;;;;;;;;;;;;;;;4770853;30;6815;-92
2023/05/11 07:49:05;;;;;;;;;;;;;;;;;;4852198;29;6699;-93
2023/05/11 07:55:30;;;;;;;;;;;;;;;;;;4871940;29;6698;-92
2023/05/11 08:01:39;;;;;;;;;;;;;;;;;;4932230;29;7416;-91
2023/05/11 08:04:30;;;;;;;;;;;;;;;;;;4931834;29;6982;-94
2023/05/11 08:06:59;;;;;;;;;;;;;;;;;;4943707;28;6988;-91
2023/05/11 08:09:28;;;;;;;;;;;;;;;;;;4973704;28;6905;-92
2023/05/11 08:42:05;;;;;;;;;;;;;;;;;;5578921;23;6783;-92
2023/05/11 08:48:05;;;;;;;;;;;;;;;;;;4989154;28;6717;-92
2023/05/11 08:50:58;;;;;;;;;;;;;;;;;;4981097;28;6833;-93
2023/05/11 08:53:24;;;;;;;;;;;;;;;;;;4978812;28;7012;-94
2023/05/11 08:55:50;;;;;;;;;;;;;;;;;;5003574;28;7260;-92
2023/05/11 08:58:21;;;;;;;;;;;;;;;;;;4999401;28;6842;-94
2023/05/11 09:00:51;;;;;;;;;;;;;;;;;;4966805;28;6832;-92
2023/05/11 09:03:21;;;;;;;;;;;;;;;;;;4970333;28;6851;-94
2023/05/11 09:12:38;;;;;;;;;;;;;;;;;;4928719;29;6697;-93
2023/05/11 09:18:50;;;;;;;;;;;;;;;;;;4893238;29;6702;-93
2023/05/11 09:37:13;;;;;;;;;;;;;;;;;;4874112;29;6987;-93
2023/05/11 09:49:32;;;;;;;;;;;;;;;;;;4906735;29;7038;-95
2023/05/11 09:52:06;;;;;;;;;;;;;;;;;;4879235;29;7255;-94
2023/05/11 09:54:39;;;;;;;;;;;;;;;;;;4954504;23;6864;-93
2023/05/11 10:00:13;;;;;;;;;;;;;;;;;;4979437;28;6705;-92
2023/05/11 10:02:40;;;;;;;;;;;;;;;;;;4968332;28;7037;-93
2023/05/11 10:05:36;;;;;;;;;;;;;;;;;;4971602;28;6844;-92
2023/05/11 10:08:04;;;;;;;;;;;;;;;;;;4968883;28;7040;-92
2023/05/11 10:11:02;;;;;;;;;;;;;;;;;;4983913;28;7040;-91
2023/05/11 18:49:58;;;;;;;;;;;;;;;;;;5031814;28;6605;-88
2023/05/11 18:52:24;;;;;;;;;;;;;;;;;;5042871;28;8446;-89
2023/05/11 18:54:49;;;;;;;;;;;;;;;;;;5009867;28;7275;-88
2023/05/11 18:57:17;;;;;;;;;;;;;;;;;;5010316;28;7269;-90
2023/05/11 18:59:43;;;;;;;;;;;;;;;;;;5026137;28;8539;-88
2023/05/11 19:02:09;;;;;;;;;;;;;;;;;;5025804;28;8479;-87
2023/05/11 19:04:34;;;;;;;;;;;;;;;;;;5025975;28;7517;-87
2023/05/11 19:07:01;;;;;;;;;;;;;;;;;;5025678;28;8480;-87
2023/05/11 19:09:27;;;;;;;;;;;;;;;;;;5025768;28;8552;-88
2023/05/11 19:11:53;;;;;;;;;;;;;;;;;;5026323;28;8511;-88
2023/05/11 19:14:18;;;;;;;;;;;;;;;;;;5025566;28;7185;-88
2023/05/11 19:16:44;;;;;;;;;;;;;;;;;;5025490;28;8489;-88
2023/05/11 19:19:10;;;;;;;;;;;;;;;;;;5025486;28;8491;-87
2023/05/11 19:21:39;;;;;;;;;;;;;;;;;;5025350;28;8434;-88
2023/05/11 19:24:05;;;;;;;;;;;;;;;;;;5025447;28;7157;-88
2023/05/11 19:26:30;;;;;;;;;;;;;;;;;;5025783;28;8482;-89
2023/05/11 19:28:56;;;;;;;;;;;;;;;;;;5025552;28;6950;-88
2023/05/11 19:31:24;;;;;;;;;;;;;;;;;;5025687;28;8474;-89
2023/05/11 19:33:49;;;;;;;;;;;;;;;;;;5025256;28;7225;-89
2023/05/11 19:36:15;;;;;;;;;;;;;;;;;;5025397;28;7125;-87
2023/05/11 19:38:40;;;;;;;;;;;;;;;;;;5025127;28;7440;-87
2023/05/11 19:41:06;;;;;;;;;;;;;;;;;;5025715;28;7371;-87
2023/05/11 19:43:31;;;;;;;;;;;;;;;;;;5025069;28;8449;-87
2023/05/11 19:45:57;;;;;;;;;;;;;;;;;;5021072;28;7373;-87
2023/05/11 19:48:23;;;;;;;;;;;;;;;;;;5004862;28;7104;-87
